Time;durP1;ratioP1;P1;durP2;ratioP2;P2;SDS_P1;SDS_P2;PMS_P1;PMS_P2;Temp;Humidity;BMP_temperature;BMP_pressure;BME280_temperature;BME280_humidity;BME280_pressure;Samples;Min_cycle;Max_cycle;Signal;HPM_P1;HPM_P2
2021/12/05 00:22:48;;;;;;;;;;;5.10;99.90;;;;;;5009325;28;19960;-63
2021/12/05 00:25:16;;;;;;;;;;;5.10;99.90;;;;;;5009352;28;19910;-62
2021/12/05 00:27:48;;;;;;;;;;;5.00;99.90;;;;;;5009423;28;19943;-62
2021/12/05 00:30:40;;;;;;;;;;;5.00;99.90;;;;;;5012408;28;20325;-63
2021/12/05 00:41:41;;;;;;;;;;;5.00;99.90;;;;;;5012805;28;19959;-63
2021/12/05 00:49:41;;;;;;;;;;;4.90;99.90;;;;;;5011294;28;20273;-62
2021/12/05 01:00:23;;;;;;;;;;;4.90;99.90;;;;;;5010775;28;19917;-64
2021/12/05 01:06:15;;;;;;;;;;;4.90;99.90;;;;;;5024840;28;20436;-64
2021/12/05 01:08:40;;;;;;;;;;;4.90;99.90;;;;;;4994682;28;19952;-64
2021/12/05 01:16:22;;;;;;;;;;;4.90;99.90;;;;;;5008658;28;19924;-65
2021/12/05 01:18:47;;;;;;;;;;;4.90;99.90;;;;;;5020456;28;20009;-63
2021/12/05 01:21:15;;;;;;;;;;;4.90;99.90;;;;;;5010900;28;20012;-65
2021/12/05 01:26:20;;;;;;;;;;;5.00;99.90;;;;;;5012923;28;19913;-64
2021/12/05 01:29:05;;;;;;;;;;;5.00;99.90;;;;;;5012933;28;19968;-64
2021/12/05 01:50:08;;;;;;;;;;;4.80;99.90;;;;;;5008920;28;19957;-70
2021/12/05 02:03:12;;;;;;;;;;;4.80;99.90;;;;;;5008901;28;20041;-70
2021/12/05 02:08:59;;;;;;;;;;;4.80;99.90;;;;;;5007418;28;19920;-70
2021/12/05 02:11:39;;;;;;;;;;;4.90;99.90;;;;;;5007899;28;20004;-71
2021/12/05 02:30:56;;;;;;;;;;;4.90;99.90;;;;;;5016864;28;20009;-71
2021/12/05 02:33:27;;;;;;;;;;;5.00;99.90;;;;;;5008935;28;20366;-71
2021/12/05 02:36:19;;;;;;;;;;;5.00;99.90;;;;;;5003811;28;19918;-71
2021/12/05 02:41:24;;;;;;;;;;;5.00;99.90;;;;;;5015674;28;20389;-70
2021/12/05 02:43:59;;;;;;;;;;;4.90;99.90;;;;;;5023794;28;19910;-69
2021/12/05 02:46:26;;;;;;;;;;;4.90;99.90;;;;;;5012191;28;20012;-71
2021/12/05 02:48:52;;;;;;;;;;;5.00;99.90;;;;;;5011565;28;19941;-71
2021/12/05 02:51:22;;;;;;;;;;;5.00;99.90;;;;;;5012415;28;19963;-69
2021/12/05 02:53:50;;;;;;;;;;;4.90;99.90;;;;;;5020062;28;19909;-70
2021/12/05 02:56:16;;;;;;;;;;;5.00;99.90;;;;;;5027624;28;19917;-70
2021/12/05 03:01:18;;;;;;;;;;;5.00;99.90;;;;;;5031583;28;19956;-69
2021/12/05 03:03:43;;;;;;;;;;;5.00;99.90;;;;;;5036291;28;20221;-69
2021/12/05 03:06:16;;;;;;;;;;;5.00;99.90;;;;;;5027361;28;19914;-69
2021/12/05 03:08:42;;;;;;;;;;;4.90;99.90;;;;;;5011581;28;19913;-68
2021/12/05 03:11:08;;;;;;;;;;;4.90;99.90;;;;;;5011389;28;20210;-70
2021/12/05 03:13:35;;;;;;;;;;;5.00;99.90;;;;;;5011918;28;20073;-69
2021/12/05 03:16:01;;;;;;;;;;;5.00;99.90;;;;;;5011995;28;20004;-69
2021/12/05 03:18:27;;;;;;;;;;;4.90;99.90;;;;;;5011530;28;19924;-69
2021/12/05 03:20:52;;;;;;;;;;;4.90;99.90;;;;;;5011151;28;20341;-68
2021/12/05 03:23:18;;;;;;;;;;;4.90;99.90;;;;;;5011097;28;20289;-69
2021/12/05 03:25:43;;;;;;;;;;;4.90;99.90;;;;;;5010760;28;19940;-68
2021/12/05 03:28:10;;;;;;;;;;;4.90;99.90;;;;;;5012114;28;19910;-68
2021/12/05 03:30:36;;;;;;;;;;;4.80;99.90;;;;;;5011392;28;19910;-70
2021/12/05 03:33:02;;;;;;;;;;;4.80;99.90;;;;;;5011428;28;19944;-70
2021/12/05 03:35:28;;;;;;;;;;;4.90;99.90;;;;;;5011553;28;19945;-69
2021/12/05 03:37:55;;;;;;;;;;;4.80;99.90;;;;;;5018938;28;19917;-68
2021/12/05 03:40:25;;;;;;;;;;;4.90;99.90;;;;;;5034926;28;20385;-70
2021/12/05 03:42:50;;;;;;;;;;;4.90;99.90;;;;;;5013974;28;20213;-69
2021/12/05 03:45:19;;;;;;;;;;;4.90;99.90;;;;;;5010739;28;19983;-70
2021/12/05 03:47:45;;;;;;;;;;;4.90;99.90;;;;;;5010341;28;20004;-70
2021/12/05 03:50:11;;;;;;;;;;;4.90;99.90;;;;;;5012923;28;19941;-68
2021/12/05 03:52:37;;;;;;;;;;;4.90;99.90;;;;;;5012416;28;19919;-70
2021/12/05 03:55:03;;;;;;;;;;;4.80;99.90;;;;;;5016537;28;19917;-70
2021/12/05 03:57:29;;;;;;;;;;;4.80;99.90;;;;;;5009426;28;19991;-72
2021/12/05 03:59:54;;;;;;;;;;;4.80;99.90;;;;;;5010474;28;20429;-70
2021/12/05 04:02:20;;;;;;;;;;;4.80;99.90;;;;;;5010417;28;19936;-68
2021/12/05 04:04:45;;;;;;;;;;;4.90;99.90;;;;;;5010341;28;20021;-71
2021/12/05 04:07:13;;;;;;;;;;;4.80;99.90;;;;;;5022145;28;20267;-70
2021/12/05 04:09:39;;;;;;;;;;;4.80;99.90;;;;;;5029788;28;19951;-70
2021/12/05 04:12:04;;;;;;;;;;;4.80;99.90;;;;;;5019093;28;20414;-70
2021/12/05 04:14:35;;;;;;;;;;;4.80;99.90;;;;;;5010158;28;20337;-70
2021/12/05 04:17:02;;;;;;;;;;;4.80;99.90;;;;;;5010674;28;19914;-69
2021/12/05 04:19:28;;;;;;;;;;;4.80;99.90;;;;;;5022407;28;19932;-71
2021/12/05 04:21:53;;;;;;;;;;;4.80;99.90;;;;;;5029900;28;19913;-68
2021/12/05 04:24:21;;;;;;;;;;;4.80;99.90;;;;;;5030637;28;20649;-70
2021/12/05 04:26:47;;;;;;;;;;;4.80;99.90;;;;;;5031228;28;20265;-68
2021/12/05 04:29:12;;;;;;;;;;;4.70;99.90;;;;;;5031338;28;19913;-70
2021/12/05 04:31:39;;;;;;;;;;;4.70;99.90;;;;;;5022408;28;19909;-69
2021/12/05 04:34:05;;;;;;;;;;;4.80;99.90;;;;;;5029955;28;20301;-69
2021/12/05 04:36:30;;;;;;;;;;;4.80;99.90;;;;;;5016013;28;20385;-69
2021/12/05 04:38:56;;;;;;;;;;;4.90;99.90;;;;;;5009662;28;19913;-72
2021/12/05 04:41:23;;;;;;;;;;;4.90;99.90;;;;;;5010007;28;20207;-69
2021/12/05 04:43:50;;;;;;;;;;;4.80;99.90;;;;;;5009860;28;19954;-69
2021/12/05 04:46:17;;;;;;;;;;;4.80;99.90;;;;;;5009444;28;19917;-70
2021/12/05 04:48:46;;;;;;;;;;;4.80;99.90;;;;;;5009838;28;19937;-70
2021/12/05 04:51:11;;;;;;;;;;;4.90;99.90;;;;;;5024435;28;19909;-70
2021/12/05 04:53:37;;;;;;;;;;;4.80;99.90;;;;;;5010200;28;19914;-69
2021/12/05 04:56:03;;;;;;;;;;;4.80;99.90;;;;;;5009924;28;21354;-69
2021/12/05 04:58:28;;;;;;;;;;;4.80;99.90;;;;;;5010193;28;20149;-68
2021/12/05 05:00:57;;;;;;;;;;;4.90;99.90;;;;;;5010168;28;20333;-71
2021/12/05 05:03:22;;;;;;;;;;;4.80;99.90;;;;;;5009580;28;20000;-70
2021/12/05 05:05:53;;;;;;;;;;;4.80;99.90;;;;;;5011202;28;20063;-70
2021/12/05 05:08:19;;;;;;;;;;;4.80;99.90;;;;;;5028856;28;20286;-71
2021/12/05 05:10:45;;;;;;;;;;;4.90;99.90;;;;;;5034210;28;19962;-70
2021/12/05 05:13:10;;;;;;;;;;;4.90;99.90;;;;;;5037832;28;19913;-69
2021/12/05 05:15:36;;;;;;;;;;;4.80;99.90;;;;;;5020512;28;19921;-69
2021/12/05 05:18:04;;;;;;;;;;;4.80;99.90;;;;;;5011170;28;20130;-70
2021/12/05 05:28:46;;;;;;;;;;;4.90;99.90;;;;;;5011185;28;19989;-69
2021/12/05 05:49:19;;;;;;;;;;;4.90;99.90;;;;;;5008022;28;19968;-70
2021/12/05 05:51:45;;;;;;;;;;;4.80;99.90;;;;;;5007769;28;19913;-70
2021/12/05 05:54:11;;;;;;;;;;;4.80;99.90;;;;;;5006689;28;19913;-70
2021/12/05 05:56:38;;;;;;;;;;;4.80;99.90;;;;;;5008519;28;19918;-72
2021/12/05 05:59:16;;;;;;;;;;;4.70;99.90;;;;;;5006825;28;19913;-71
2021/12/05 06:02:02;;;;;;;;;;;4.70;99.90;;;;;;5005346;28;19914;-70
2021/12/05 06:04:26;;;;;;;;;;;4.70;99.90;;;;;;5000112;28;20185;-70
2021/12/05 06:06:52;;;;;;;;;;;4.60;99.90;;;;;;5031796;28;20279;-70
2021/12/05 06:09:17;;;;;;;;;;;4.60;99.90;;;;;;5027192;28;19995;-70
2021/12/05 06:11:43;;;;;;;;;;;4.70;99.90;;;;;;5009882;28;19913;-69
2021/12/05 06:14:08;;;;;;;;;;;4.70;99.90;;;;;;5024884;28;19955;-69
2021/12/05 06:16:34;;;;;;;;;;;4.70;99.90;;;;;;5010986;28;20429;-70
2021/12/05 06:18:59;;;;;;;;;;;4.70;99.90;;;;;;5008776;28;20358;-70
2021/12/05 06:21:25;;;;;;;;;;;4.70;99.90;;;;;;5008464;28;20001;-70
2021/12/05 06:23:50;;;;;;;;;;;4.70;99.90;;;;;;5008252;28;20374;-70
2021/12/05 06:26:21;;;;;;;;;;;4.70;99.90;;;;;;5008697;28;20510;-70
2021/12/05 06:28:56;;;;;;;;;;;4.70;99.90;;;;;;5006412;28;20386;-70
2021/12/05 06:31:32;;;;;;;;;;;4.70;99.90;;;;;;5007340;28;19910;-71
2021/12/05 06:47:28;;;;;;;;;;;4.80;99.90;;;;;;5001665;28;19971;-71
2021/12/05 06:49:55;;;;;;;;;;;4.70;99.90;;;;;;4998431;28;19917;-70
2021/12/05 06:52:21;;;;;;;;;;;4.70;99.90;;;;;;5002067;28;19954;-70
2021/12/05 06:54:46;;;;;;;;;;;4.60;99.90;;;;;;5003419;28;19910;-70
2021/12/05 06:57:12;;;;;;;;;;;4.60;99.90;;;;;;5005904;28;19983;-70
2021/12/05 06:59:39;;;;;;;;;;;4.60;99.90;;;;;;5004863;28;19916;-70
2021/12/05 07:02:06;;;;;;;;;;;4.50;99.90;;;;;;5004554;28;19909;-70
2021/12/05 07:04:49;;;;;;;;;;;4.50;99.90;;;;;;5004698;28;20012;-68
2021/12/05 07:07:22;;;;;;;;;;;4.50;99.90;;;;;;5021227;28;19917;-69
2021/12/05 07:09:48;;;;;;;;;;;4.40;99.90;;;;;;5013942;28;19985;-69
2021/12/05 07:15:09;;;;;;;;;;;4.40;99.90;;;;;;5007194;28;19928;-71
2021/12/05 07:22:39;;;;;;;;;;;4.50;99.90;;;;;;5005529;28;19910;-70
2021/12/05 07:25:13;;;;;;;;;;;4.60;99.90;;;;;;5000653;28;19914;-69
2021/12/05 07:41:19;;;;;;;;;;;5.00;99.90;;;;;;5009591;28;19924;-70
2021/12/05 07:43:44;;;;;;;;;;;5.00;99.90;;;;;;5011216;28;19932;-71
2021/12/05 07:46:11;;;;;;;;;;;5.10;99.90;;;;;;5019458;28;20365;-71
2021/12/05 07:48:39;;;;;;;;;;;5.10;99.90;;;;;;5017324;28;20189;-71
2021/12/05 07:53:56;;;;;;;;;;;5.10;99.90;;;;;;5008154;28;20055;-69
2021/12/05 07:59:12;;;;;;;;;;;5.10;99.90;;;;;;5012560;28;20488;-69
2021/12/05 08:15:30;;;;;;;;;;;4.80;99.90;;;;;;5009909;28;20569;-72
2021/12/05 08:17:58;;;;;;;;;;;4.80;99.90;;;;;;5016131;28;19965;-72
2021/12/05 08:20:28;;;;;;;;;;;4.90;99.90;;;;;;4990770;28;19910;-71
2021/12/05 08:22:54;;;;;;;;;;;4.90;99.90;;;;;;4990058;28;19914;-71
2021/12/05 08:25:22;;;;;;;;;;;4.80;99.90;;;;;;4991319;28;19952;-70
2021/12/05 08:27:52;;;;;;;;;;;4.70;99.90;;;;;;4995944;28;19932;-69
2021/12/05 08:30:37;;;;;;;;;;;4.70;99.90;;;;;;5010558;28;19928;-69
2021/12/05 08:36:10;;;;;;;;;;;4.60;99.90;;;;;;5008797;28;20424;-69
2021/12/05 08:43:57;;;;;;;;;;;4.60;99.90;;;;;;5008981;28;19928;-70
2021/12/05 09:20:28;;;;;;;;;;;5.00;99.90;;;;;;5010524;28;19967;-69
2021/12/05 09:24:51;;;;;;;;;;;5.00;99.90;;;;;;5010973;28;19922;-70
2021/12/05 10:11:13;;;;;;;;;;;5.50;99.90;;;;;;5009549;28;19913;-70
2021/12/05 10:16:18;;;;;;;;;;;5.40;99.90;;;;;;5006996;28;20009;-69
2021/12/05 10:19:08;;;;;;;;;;;5.40;99.90;;;;;;5012538;28;19909;-69
2021/12/05 10:37:54;;;;;;;;;;;5.70;99.90;;;;;;5008341;28;19959;-70
2021/12/05 10:40:30;;;;;;;;;;;5.80;99.90;;;;;;5004214;28;19924;-71
2021/12/05 10:42:55;;;;;;;;;;;5.90;99.90;;;;;;5006744;28;19909;-70
2021/12/05 10:45:37;;;;;;;;;;;5.90;99.90;;;;;;5006673;28;19972;-70
2021/12/05 10:48:06;;;;;;;;;;;5.80;99.90;;;;;;5005210;28;19976;-69
2021/12/05 10:50:37;;;;;;;;;;;5.80;99.90;;;;;;5005353;28;19917;-70
2021/12/05 10:53:21;;;;;;;;;;;5.90;99.90;;;;;;5006082;28;19985;-69
2021/12/05 10:56:05;;;;;;;;;;;5.90;99.90;;;;;;5006904;28;20008;-69
2021/12/05 10:58:35;;;;;;;;;;;5.80;99.90;;;;;;5007970;28;20233;-69
2021/12/05 11:01:06;;;;;;;;;;;5.90;99.90;;;;;;5010197;28;20004;-69
2021/12/05 11:03:32;;;;;;;;;;;5.90;99.90;;;;;;5010083;28;19921;-69
2021/12/05 11:05:58;;;;;;;;;;;6.00;99.90;;;;;;5009203;28;20285;-69
2021/12/05 11:08:35;;;;;;;;;;;6.10;99.90;;;;;;5008384;28;19924;-69
2021/12/05 11:11:08;;;;;;;;;;;6.10;99.90;;;;;;5009938;28;19913;-69
2021/12/05 11:13:35;;;;;;;;;;;6.10;99.90;;;;;;5009324;28;20286;-69
2021/12/05 11:16:00;;;;;;;;;;;6.00;99.90;;;;;;5025553;28;20491;-70
2021/12/05 11:18:42;;;;;;;;;;;6.00;99.90;;;;;;5010797;28;19914;-70
2021/12/05 11:21:24;;;;;;;;;;;6.00;99.90;;;;;;5023453;28;20425;-70
2021/12/05 11:24:08;;;;;;;;;;;6.10;99.90;;;;;;5007982;28;19917;-69
2021/12/05 11:26:34;;;;;;;;;;;5.90;99.90;;;;;;5007579;28;20012;-70
2021/12/05 11:29:00;;;;;;;;;;;5.90;99.90;;;;;;5007560;28;19997;-69
2021/12/05 11:31:27;;;;;;;;;;;5.80;99.90;;;;;;5011115;28;20352;-68
2021/12/05 11:33:56;;;;;;;;;;;5.90;99.90;;;;;;5010947;28;19913;-70
2021/12/05 11:36:26;;;;;;;;;;;5.80;99.90;;;;;;5009138;28;20396;-69
2021/12/05 11:38:52;;;;;;;;;;;5.80;99.90;;;;;;5010882;28;19923;-69
2021/12/05 11:41:21;;;;;;;;;;;5.80;99.90;;;;;;5010636;28;20008;-67
2021/12/05 11:43:48;;;;;;;;;;;5.90;99.90;;;;;;5010789;28;20294;-68
2021/12/05 11:46:27;;;;;;;;;;;5.80;99.90;;;;;;5012102;28;19957;-69
2021/12/05 11:49:06;;;;;;;;;;;5.90;99.90;;;;;;5010909;28;19913;-68
2021/12/05 11:51:33;;;;;;;;;;;6.00;99.90;;;;;;5009715;28;19924;-69
2021/12/05 11:54:08;;;;;;;;;;;6.00;99.90;;;;;;5011906;28;19914;-69
2021/12/05 11:56:33;;;;;;;;;;;5.90;99.90;;;;;;5013315;28;20004;-68
2021/12/05 11:59:02;;;;;;;;;;;6.00;99.90;;;;;;5012654;28;20370;-70
2021/12/05 12:01:32;;;;;;;;;;;6.20;99.90;;;;;;5026616;28;19924;-68
2021/12/05 12:03:57;;;;;;;;;;;6.10;99.90;;;;;;5010697;28;20553;-69
2021/12/05 12:06:23;;;;;;;;;;;6.10;99.90;;;;;;5016768;28;20008;-70
2021/12/05 12:08:52;;;;;;;;;;;6.10;99.90;;;;;;5029303;28;21479;-68
2021/12/05 12:11:17;;;;;;;;;;;6.10;99.90;;;;;;5010821;28;19918;-67
2021/12/05 12:13:43;;;;;;;;;;;6.20;99.90;;;;;;5010203;28;19923;-68
2021/12/05 12:16:12;;;;;;;;;;;6.20;99.90;;;;;;5010062;28;20169;-68
2021/12/05 12:18:39;;;;;;;;;;;6.10;99.90;;;;;;5009880;28;19921;-68
2021/12/05 12:21:11;;;;;;;;;;;6.20;99.90;;;;;;5010338;28;20025;-68
2021/12/05 12:23:37;;;;;;;;;;;6.30;99.90;;;;;;5010164;28;20341;-68
2021/12/05 12:26:05;;;;;;;;;;;6.40;99.90;;;;;;5010277;28;19917;-69
2021/12/05 12:28:30;;;;;;;;;;;6.30;99.90;;;;;;5015592;28;19983;-68
2021/12/05 12:31:00;;;;;;;;;;;6.40;99.90;;;;;;5019942;28;20083;-68
2021/12/05 12:33:36;;;;;;;;;;;6.50;99.90;;;;;;5022891;28;19910;-70
2021/12/05 12:36:03;;;;;;;;;;;6.50;99.90;;;;;;5014340;28;19940;-68
2021/12/05 12:38:29;;;;;;;;;;;6.40;99.90;;;;;;5042585;28;19913;-67
2021/12/05 12:40:59;;;;;;;;;;;6.30;99.90;;;;;;5016908;28;20069;-67
2021/12/05 12:43:37;;;;;;;;;;;6.20;99.90;;;;;;5008086;28;19941;-69
2021/12/05 12:46:19;;;;;;;;;;;6.20;99.90;;;;;;5007022;28;20357;-69
2021/12/05 12:48:45;;;;;;;;;;;6.20;99.90;;;;;;5008849;28;19924;-68
2021/12/05 12:51:35;;;;;;;;;;;6.20;99.90;;;;;;5007040;28;19913;-69
2021/12/05 12:54:02;;;;;;;;;;;6.30;99.90;;;;;;5020615;28;20355;-69
2021/12/05 12:56:28;;;;;;;;;;;6.20;99.90;;;;;;5008614;28;19924;-68
2021/12/05 12:59:00;;;;;;;;;;;6.20;99.90;;;;;;5007509;28;19918;-69
2021/12/05 13:12:50;;;;;;;;;;;6.40;99.90;;;;;;5014821;28;20412;-68
2021/12/05 13:15:36;;;;;;;;;;;6.40;99.90;;;;;;4998719;28;20446;-68
2021/12/05 13:18:08;;;;;;;;;;;6.50;99.90;;;;;;5007046;28;20341;-70
2021/12/05 13:20:42;;;;;;;;;;;6.40;99.90;;;;;;5001378;28;19914;-69
2021/12/05 13:23:19;;;;;;;;;;;6.30;99.90;;;;;;5005779;28;20033;-68
2021/12/05 13:25:59;;;;;;;;;;;6.30;99.90;;;;;;5008445;28;19963;-69
2021/12/05 13:28:29;;;;;;;;;;;6.40;99.90;;;;;;5019502;28;19921;-69
2021/12/05 13:30:55;;;;;;;;;;;6.40;99.90;;;;;;5017968;28;20999;-69
2021/12/05 13:33:22;;;;;;;;;;;6.30;99.90;;;;;;5013185;28;19920;-69
2021/12/05 13:35:48;;;;;;;;;;;6.40;99.90;;;;;;5009166;28;19993;-69
2021/12/05 13:38:34;;;;;;;;;;;6.30;99.90;;;;;;5009004;28;20412;-69
2021/12/05 13:41:16;;;;;;;;;;;6.40;99.90;;;;;;5023418;28;20328;-68
2021/12/05 13:43:52;;;;;;;;;;;6.30;99.90;;;;;;5024005;28;19972;-69
2021/12/05 13:46:38;;;;;;;;;;;6.30;99.90;;;;;;5008852;28;19927;-69
2021/12/05 13:49:22;;;;;;;;;;;6.40;99.90;;;;;;5007750;28;19940;-68
2021/12/05 13:51:48;;;;;;;;;;;6.50;99.90;;;;;;5008740;28;19960;-69
2021/12/05 13:54:27;;;;;;;;;;;6.50;99.90;;;;;;5008734;28;19914;-69
2021/12/05 13:57:07;;;;;;;;;;;6.50;99.90;;;;;;5008587;28;19913;-69
2021/12/05 13:59:32;;;;;;;;;;;6.50;99.90;;;;;;5008534;28;19949;-68
2021/12/05 14:01:58;;;;;;;;;;;6.50;99.90;;;;;;5008149;28;19960;-69
2021/12/05 14:04:24;;;;;;;;;;;6.50;99.90;;;;;;5008423;28;20301;-68
2021/12/05 14:06:54;;;;;;;;;;;6.50;99.90;;;;;;5017806;28;20019;-68
2021/12/05 14:09:20;;;;;;;;;;;6.50;99.90;;;;;;5026543;28;20386;-68
2021/12/05 14:11:45;;;;;;;;;;;6.50;99.90;;;;;;5013354;28;19914;-70
2021/12/05 14:14:11;;;;;;;;;;;6.50;99.90;;;;;;5028437;28;20360;-70
2021/12/05 14:16:38;;;;;;;;;;;6.50;99.90;;;;;;5016250;28;19920;-69
2021/12/05 14:19:04;;;;;;;;;;;6.50;99.90;;;;;;5008503;28;19914;-69
2021/12/05 14:21:30;;;;;;;;;;;6.50;99.90;;;;;;5008129;28;19918;-70
2021/12/05 14:23:57;;;;;;;;;;;6.40;99.90;;;;;;5008438;28;19924;-68
2021/12/05 14:26:25;;;;;;;;;;;6.30;99.90;;;;;;5007050;28;19917;-69
2021/12/05 14:28:56;;;;;;;;;;;6.30;99.90;;;;;;5022510;28;19917;-70
2021/12/05 14:31:26;;;;;;;;;;;6.20;99.90;;;;;;5007645;28;20406;-68
2021/12/05 14:33:52;;;;;;;;;;;6.20;99.90;;;;;;5008557;28;20413;-69
2021/12/05 14:36:19;;;;;;;;;;;6.20;99.90;;;;;;5010798;28;20303;-69
2021/12/05 14:38:44;;;;;;;;;;;6.20;99.90;;;;;;5010909;28;19967;-69
2021/12/05 14:41:10;;;;;;;;;;;6.10;99.90;;;;;;5014045;28;19989;-70
2021/12/05 14:43:35;;;;;;;;;;;6.10;99.90;;;;;;5030647;28;19925;-68
2021/12/05 14:46:01;;;;;;;;;;;6.10;99.90;;;;;;5013282;28;19914;-68
2021/12/05 14:48:29;;;;;;;;;;;6.00;99.90;;;;;;5011873;28;19917;-69
2021/12/05 14:50:57;;;;;;;;;;;6.10;99.90;;;;;;5009191;28;20011;-69
2021/12/05 14:53:24;;;;;;;;;;;6.20;99.90;;;;;;5009387;28;20000;-68
2021/12/05 14:55:56;;;;;;;;;;;6.10;99.90;;;;;;5009091;28;19918;-68
2021/12/05 14:58:22;;;;;;;;;;;6.00;99.90;;;;;;5013858;28;20333;-69
2021/12/05 15:00:50;;;;;;;;;;;6.00;99.90;;;;;;5009096;28;19917;-69
2021/12/05 15:03:18;;;;;;;;;;;6.10;99.90;;;;;;5009115;28;19936;-68
2021/12/05 15:05:47;;;;;;;;;;;6.20;99.90;;;;;;5013547;28;19917;-72
2021/12/05 15:08:15;;;;;;;;;;;6.10;99.90;;;;;;5032775;28;19913;-71
2021/12/05 15:10:41;;;;;;;;;;;6.10;99.90;;;;;;5014079;28;20413;-73
2021/12/05 15:13:08;;;;;;;;;;;6.10;99.90;;;;;;5014993;28;19935;-70
2021/12/05 15:15:34;;;;;;;;;;;6.10;99.90;;;;;;5013049;28;20529;-71
2021/12/05 15:18:00;;;;;;;;;;;6.10;99.90;;;;;;5012451;28;19917;-70
2021/12/05 15:20:27;;;;;;;;;;;6.10;99.90;;;;;;5011488;28;19925;-69
2021/12/05 15:22:54;;;;;;;;;;;6.20;99.90;;;;;;5033139;28;19924;-71
2021/12/05 15:25:21;;;;;;;;;;;6.10;99.90;;;;;;5014476;28;19913;-69
2021/12/05 15:27:48;;;;;;;;;;;6.00;99.90;;;;;;5013565;28;19926;-71
2021/12/05 15:30:42;;;;;;;;;;;6.00;99.90;;;;;;5013041;28;20385;-69
2021/12/05 15:33:09;;;;;;;;;;;6.00;99.90;;;;;;5013685;28;19921;-70
2021/12/05 15:35:35;;;;;;;;;;;6.00;99.90;;;;;;5013330;28;19913;-70
2021/12/05 15:38:08;;;;;;;;;;;6.10;99.90;;;;;;5015720;28;19928;-70
2021/12/05 15:40:35;;;;;;;;;;;6.20;99.90;;;;;;5007265;28;20369;-70
2021/12/05 15:43:03;;;;;;;;;;;6.10;99.90;;;;;;5004397;28;19920;-70
2021/12/05 15:45:29;;;;;;;;;;;6.20;99.90;;;;;;5006850;28;19922;-71
2021/12/05 15:47:54;;;;;;;;;;;6.20;99.90;;;;;;5010927;28;19929;-71
2021/12/05 15:50:24;;;;;;;;;;;6.20;99.90;;;;;;5026930;28;19926;-69
2021/12/05 15:52:50;;;;;;;;;;;6.20;99.90;;;;;;5009278;28;19920;-68
2021/12/05 15:55:24;;;;;;;;;;;6.20;99.90;;;;;;5010951;28;20341;-68
2021/12/05 15:57:52;;;;;;;;;;;6.10;99.90;;;;;;5011871;28;20000;-68
2021/12/05 16:00:19;;;;;;;;;;;5.90;99.90;;;;;;5020604;28;19917;-69
2021/12/05 16:02:49;;;;;;;;;;;5.70;99.90;;;;;;5023804;28;20414;-68
2021/12/05 16:05:15;;;;;;;;;;;5.70;99.90;;;;;;5011044;28;19918;-68
2021/12/05 16:07:41;;;;;;;;;;;5.60;99.90;;;;;;5009034;28;20019;-67
2021/12/05 16:10:12;;;;;;;;;;;5.50;99.90;;;;;;5009147;28;20397;-68
2021/12/05 16:12:39;;;;;;;;;;;5.60;99.90;;;;;;5021524;28;19925;-69
2021/12/05 16:15:05;;;;;;;;;;;5.60;99.90;;;;;;5016537;28;19916;-68
2021/12/05 16:17:30;;;;;;;;;;;5.60;99.90;;;;;;5035512;28;19914;-69
2021/12/05 16:20:09;;;;;;;;;;;5.50;99.90;;;;;;5013006;28;19910;-68
2021/12/05 16:22:53;;;;;;;;;;;5.50;99.90;;;;;;5012027;28;19913;-68
2021/12/05 16:25:19;;;;;;;;;;;5.40;99.90;;;;;;5012002;28;19996;-68
2021/12/05 16:27:51;;;;;;;;;;;5.40;99.90;;;;;;5010912;28;19917;-68
2021/12/05 16:30:25;;;;;;;;;;;5.50;99.90;;;;;;5009838;28;19913;-67
2021/12/05 16:32:51;;;;;;;;;;;5.60;99.90;;;;;;5006497;28;19960;-68
2021/12/05 16:35:27;;;;;;;;;;;5.60;99.90;;;;;;5006755;28;19949;-70
2021/12/05 16:37:52;;;;;;;;;;;5.60;99.90;;;;;;5007128;28;19917;-70
2021/12/05 16:40:18;;;;;;;;;;;5.60;99.90;;;;;;5009378;28;19936;-68
2021/12/05 16:42:44;;;;;;;;;;;5.50;99.90;;;;;;5008741;28;19917;-69
2021/12/05 16:45:11;;;;;;;;;;;5.40;99.90;;;;;;5009096;28;20530;-69
2021/12/05 16:47:37;;;;;;;;;;;5.30;99.90;;;;;;5009423;28;19925;-68
2021/12/05 16:50:05;;;;;;;;;;;5.30;99.90;;;;;;5009599;28;19960;-68
2021/12/05 16:52:34;;;;;;;;;;;5.30;99.90;;;;;;5006590;28;19913;-67
2021/12/05 16:55:10;;;;;;;;;;;5.30;99.90;;;;;;5008185;28;19910;-67
2021/12/05 16:57:44;;;;;;;;;;;5.30;99.90;;;;;;5007704;28;19913;-68
2021/12/05 17:00:12;;;;;;;;;;;5.30;99.90;;;;;;5009521;28;20028;-68
2021/12/05 17:02:42;;;;;;;;;;;5.20;99.90;;;;;;5007921;28;19913;-67
2021/12/05 17:05:07;;;;;;;;;;;5.20;99.90;;;;;;5014782;28;19928;-67
2021/12/05 17:07:36;;;;;;;;;;;5.20;99.90;;;;;;5025771;28;19921;-68
2021/12/05 17:10:04;;;;;;;;;;;5.10;99.90;;;;;;5010957;28;19943;-68
2021/12/05 17:12:32;;;;;;;;;;;5.20;99.90;;;;;;5011861;28;19965;-67
2021/12/05 17:15:12;;;;;;;;;;;5.30;99.90;;;;;;5016560;28;19914;-68
2021/12/05 17:17:37;;;;;;;;;;;5.30;99.90;;;;;;5016994;28;19953;-69
2021/12/05 17:20:19;;;;;;;;;;;5.40;99.90;;;;;;5017216;28;19979;-68
2021/12/05 17:22:55;;;;;;;;;;;5.50;99.90;;;;;;5015230;28;21008;-68
2021/12/05 17:25:35;;;;;;;;;;;5.50;99.90;;;;;;5015961;28;19910;-68
2021/12/05 17:28:01;;;;;;;;;;;5.40;99.90;;;;;;5011168;28;20298;-69
2021/12/05 17:30:26;;;;;;;;;;;5.30;99.90;;;;;;5010438;28;20385;-68
2021/12/05 17:32:52;;;;;;;;;;;5.30;99.90;;;;;;5007346;28;19988;-68
2021/12/05 17:35:18;;;;;;;;;;;5.20;99.90;;;;;;5009542;28;19913;-68
2021/12/05 17:37:44;;;;;;;;;;;5.30;99.90;;;;;;5008991;28;19924;-68
2021/12/05 17:40:11;;;;;;;;;;;5.20;99.90;;;;;;5007642;28;19916;-68
2021/12/05 17:42:38;;;;;;;;;;;5.30;99.90;;;;;;5008453;28;20425;-68
2021/12/05 17:45:05;;;;;;;;;;;5.40;99.90;;;;;;5008779;28;19960;-69
2021/12/05 17:47:31;;;;;;;;;;;5.40;99.90;;;;;;5008420;28;19981;-66
2021/12/05 17:49:58;;;;;;;;;;;5.50;99.90;;;;;;5008190;28;20028;-67
2021/12/05 17:52:24;;;;;;;;;;;5.50;99.90;;;;;;5008584;28;20001;-68
2021/12/05 17:54:57;;;;;;;;;;;5.50;99.90;;;;;;5008744;28;19999;-67
2021/12/05 18:00:38;;;;;;;;;;;5.40;99.90;;;;;;4995604;28;19917;-68
2021/12/05 18:03:06;;;;;;;;;;;5.40;99.90;;;;;;5007799;28;20424;-67
2021/12/05 18:05:35;;;;;;;;;;;5.30;99.90;;;;;;5010521;28;20528;-69
2021/12/05 18:08:04;;;;;;;;;;;5.40;99.90;;;;;;5005760;28;19917;-68
2021/12/05 18:10:31;;;;;;;;;;;5.40;99.90;;;;;;5005702;28;20397;-69
2021/12/05 18:12:59;;;;;;;;;;;5.40;99.90;;;;;;5006219;28;19917;-69
2021/12/05 18:15:28;;;;;;;;;;;5.40;99.90;;;;;;5005873;28;19917;-68
2021/12/05 18:17:55;;;;;;;;;;;5.50;99.90;;;;;;5004956;28;20363;-69
2021/12/05 18:20:25;;;;;;;;;;;5.40;99.90;;;;;;5010143;28;19917;-69
2021/12/05 18:22:52;;;;;;;;;;;5.50;99.90;;;;;;5012286;28;19913;-68
2021/12/05 18:25:17;;;;;;;;;;;5.40;99.90;;;;;;5011882;28;19913;-70
2021/12/05 18:27:43;;;;;;;;;;;5.30;99.90;;;;;;5007629;28;19917;-69
2021/12/05 18:30:10;;;;;;;;;;;5.40;99.90;;;;;;5006867;28;19917;-70
2021/12/05 18:32:35;;;;;;;;;;;5.40;99.90;;;;;;5005611;28;19917;-68
2021/12/05 18:35:04;;;;;;;;;;;5.50;99.90;;;;;;5005028;28;19922;-68
2021/12/05 18:37:29;;;;;;;;;;;5.50;99.90;;;;;;5004589;28;19971;-69
2021/12/05 18:39:55;;;;;;;;;;;5.60;99.90;;;;;;5005891;28;19955;-68
2021/12/05 18:42:21;;;;;;;;;;;5.50;99.90;;;;;;5008303;28;20326;-69
2021/12/05 18:44:51;;;;;;;;;;;5.50;99.90;;;;;;5006267;28;19916;-69
2021/12/05 18:47:17;;;;;;;;;;;5.30;99.90;;;;;;5004661;28;19918;-70
2021/12/05 18:49:43;;;;;;;;;;;5.00;99.90;;;;;;5007716;28;19915;-69
2021/12/05 18:52:09;;;;;;;;;;;4.90;99.90;;;;;;5006630;28;20004;-70
2021/12/05 18:54:35;;;;;;;;;;;4.90;99.90;;;;;;5007848;28;20001;-70
2021/12/05 18:57:02;;;;;;;;;;;4.90;99.90;;;;;;5009972;28;20324;-69
2021/12/05 18:59:31;;;;;;;;;;;4.90;99.90;;;;;;5018985;28;20090;-68
2021/12/05 19:04:47;;;;;;;;;;;5.00;99.90;;;;;;5013681;28;19924;-68
2021/12/05 19:07:19;;;;;;;;;;;4.80;99.90;;;;;;5013783;28;19917;-70
2021/12/05 19:12:24;;;;;;;;;;;4.80;99.90;;;;;;5011796;28;19913;-67
2021/12/05 19:14:51;;;;;;;;;;;4.60;99.90;;;;;;5007797;28;20016;-67
2021/12/05 19:17:21;;;;;;;;;;;4.70;99.90;;;;;;5002348;28;19936;-68
2021/12/05 19:19:48;;;;;;;;;;;4.70;99.90;;;;;;5006442;28;19993;-68
2021/12/05 19:22:16;;;;;;;;;;;4.70;99.90;;;;;;5008144;28;20314;-71
2021/12/05 19:24:42;;;;;;;;;;;4.70;99.90;;;;;;5008388;28;19918;-69
2021/12/05 19:27:08;;;;;;;;;;;4.70;99.90;;;;;;5009204;28;19967;-68
2021/12/05 19:29:34;;;;;;;;;;;4.80;99.90;;;;;;5010976;28;19945;-68
2021/12/05 19:32:00;;;;;;;;;;;4.70;99.90;;;;;;5010734;28;19914;-68
2021/12/05 19:34:27;;;;;;;;;;;4.60;99.90;;;;;;5011799;28;19923;-70
2021/12/05 19:36:52;;;;;;;;;;;4.60;99.90;;;;;;5011036;28;19916;-69
2021/12/05 19:39:19;;;;;;;;;;;4.60;99.90;;;;;;5011039;28;19913;-69
2021/12/05 19:41:45;;;;;;;;;;;4.80;99.90;;;;;;5011336;28;20044;-70
2021/12/05 19:44:11;;;;;;;;;;;4.90;99.90;;;;;;5011777;28;20004;-70
2021/12/05 19:46:37;;;;;;;;;;;5.00;99.90;;;;;;5011482;28;20000;-69
2021/12/05 19:49:03;;;;;;;;;;;5.10;99.90;;;;;;5011169;28;19917;-68
2021/12/05 19:51:29;;;;;;;;;;;5.20;99.90;;;;;;5010361;28;20114;-69
2021/12/05 19:53:55;;;;;;;;;;;5.10;99.90;;;;;;5010523;28;19921;-69
2021/12/05 19:56:21;;;;;;;;;;;5.00;99.90;;;;;;5011187;28;19936;-68
2021/12/05 19:58:47;;;;;;;;;;;5.10;99.90;;;;;;5013435;28;19914;-69